Trout Valley, Illinois
Current Conditions -  °F | °C
As of 4:14 AM on Tuesday 27 Jan 2015 (Local Time) from KPWK Reporting Station
Haze Haze  
Wind Chill: 27°   Ceiling: 900
Heat Index: 27°   Visibility: 6mi
Dew Point: 24°   Wind: 3mph
Humidity: 89%   Direction: 340°NNW
Pressure: 30.01"   Gusts: NA
Location:  42.2198°N, 88.2351°W
Report Text: KPWK 271014Z AUTO 34003KT 6SM BR OVC009 M03/M04 A3001 RMK AO2 CIG 006V013 T10281044
Loading
Personal Weather Stations






























Interactive Weather Map New forecast layout! Learn more

10-Day Weather Forecast

Advertisements
Track Severe Weather on mobile